Weather at Vodochody Airport

Public forecast

Using degrees Celsius for public forecast. Weather courtesy of forecast.io.

Current aviation weather report (METAR) for Vodochody Airport

Report is more than 6 hours old.

Retrieved 2021/01/27 15:00 UTC (11 hours ago):

LKVO 271500Z 23004KT 9999 FEW023 02/M02 Q1013 R28/551095

Closest aviation forecast (TAF) to Vodochody Airport

Closest forecast is Kbely Air Base, 8.1 nm (14.9 km) SE. Retrieved 2021-01-28 00:00 UTC (2 hours ago):

TAF LKKB 272300Z 2800/2900 20010KT 9999 BKN030 TEMPO 2800/2806 4000 SN BR BKN010 OVC020 TEMPO 2810/2815 4000 RASN BR BKN007 OVC015 BECMG 2815/2818 6000 RASN BKN007 OVC020 PROB40 TEMPO 2817/2900 0600 SN BR OVC002